createdAt,value
2018-07-07T00:00:03.147Z,45.90
2018-07-07T00:02:38.671Z,46.00
2018-07-07T00:05:13.808Z,45.80
2018-07-07T00:07:48.857Z,45.60
2018-07-07T00:10:23.815Z,45.30
2018-07-07T00:12:58.912Z,46.70
2018-07-07T00:15:33.995Z,46.70
2018-07-07T00:18:09.152Z,46.20
2018-07-07T00:20:44.120Z,46.70
2018-07-07T00:23:19.248Z,47.10
2018-07-07T00:25:54.336Z,47.80
2018-07-07T00:28:29.547Z,47.90
2018-07-07T00:31:04.547Z,47.90
2018-07-07T00:33:39.647Z,48.30
2018-07-07T00:36:14.650Z,48.00
2018-07-07T00:38:49.687Z,48.60
2018-07-07T00:41:24.850Z,49.20
2018-07-07T00:43:59.892Z,49.50
2018-07-07T00:46:34.860Z,49.70
2018-07-07T00:49:09.939Z,50.30
2018-07-07T00:51:44.928Z,50.90
2018-07-07T00:54:20.045Z,51.20
2018-07-07T00:56:55.008Z,51.00
2018-07-07T00:59:30.128Z,50.60
2018-07-07T01:02:09.483Z,51.00
2018-07-07T01:04:44.524Z,50.60
2018-07-07T01:09:54.630Z,51.20
2018-07-07T01:12:29.578Z,51.60
2018-07-07T01:15:04.783Z,51.40
2018-07-07T01:17:40.535Z,52.20
2018-07-07T01:20:15.463Z,52.30
2018-07-07T01:22:50.523Z,52.40
2018-07-07T01:25:25.571Z,53.00
2018-07-07T01:28:00.653Z,52.90
2018-07-07T01:30:35.739Z,53.70
2018-07-07T01:33:10.964Z,53.50
2018-07-07T01:35:46.074Z,53.90
2018-07-07T01:38:21.054Z,54.00
2018-07-07T01:40:56.152Z,54.20
2018-07-07T01:43:31.115Z,54.50
2018-07-07T01:46:06.231Z,54.70
2018-07-07T01:48:41.296Z,55.00
2018-07-07T01:51:16.164Z,55.40
2018-07-07T01:53:51.268Z,55.60
2018-07-07T01:56:26.432Z,56.20
2018-07-07T01:59:01.547Z,56.80
2018-07-07T02:01:36.713Z,57.40
2018-07-07T02:04:11.838Z,57.80
2018-07-07T02:06:46.903Z,57.60
2018-07-07T02:09:21.988Z,57.00
2018-07-07T02:11:57.148Z,57.00
2018-07-07T02:14:32.068Z,57.80
2018-07-07T02:17:07.108Z,58.00
2018-07-07T02:19:42.500Z,58.00
2018-07-07T02:22:19.680Z,58.50
2018-07-07T02:24:54.751Z,58.40
2018-07-07T02:27:29.713Z,58.40
2018-07-07T02:30:05.001Z,58.60
2018-07-07T02:32:40.056Z,58.70
2018-07-07T02:35:15.128Z,59.30
2018-07-07T02:37:50.085Z,59.20
2018-07-07T02:40:25.181Z,60.20
2018-07-07T02:43:00.092Z,60.40
2018-07-07T02:45:35.033Z,61.70
2018-07-07T02:48:10.020Z,61.90
2018-07-07T02:50:45.136Z,61.60
2018-07-07T02:53:20.292Z,61.90
2018-07-07T02:55:55.419Z,62.40
2018-07-07T02:58:30.524Z,62.90
2018-07-07T03:01:05.604Z,63.50
2018-07-07T03:03:41.208Z,63.50
2018-07-07T03:06:16.359Z,64.60
2018-07-07T03:08:51.309Z,65.30
2018-07-07T03:11:26.384Z,65.40
2018-07-07T03:14:01.575Z,66.10
2018-07-07T03:16:36.628Z,66.40
2018-07-07T03:19:11.599Z,66.30
2018-07-07T03:21:46.568Z,66.30
2018-07-07T03:24:21.508Z,66.80
2018-07-07T03:26:56.599Z,67.40
2018-07-07T03:29:31.513Z,68.10
2018-07-07T03:32:06.547Z,69.20
2018-07-07T03:34:41.496Z,69.10
2018-07-07T03:37:16.575Z,68.40
2018-07-07T03:39:51.651Z,68.40
2018-07-07T03:42:26.620Z,68.20
2018-07-07T03:45:01.751Z,69.50
2018-07-07T03:47:36.760Z,70.10
2018-07-07T03:50:11.891Z,70.50
2018-07-07T03:52:46.909Z,70.30
2018-07-07T03:55:22.048Z,70.80
2018-07-07T03:57:57.074Z,71.50
2018-07-07T04:00:32.013Z,72.50
2018-07-07T04:03:07.103Z,72.40
2018-07-07T04:05:42.192Z,73.10
2018-07-07T04:08:17.304Z,72.00
2018-07-07T04:10:52.432Z,71.70
2018-07-07T04:13:27.616Z,72.20
2018-07-07T04:16:02.909Z,72.30
2018-07-07T04:18:38.055Z,72.90
2018-07-07T04:21:13.112Z,73.10
2018-07-07T04:23:48.248Z,73.10
2018-07-07T04:26:23.215Z,72.90
2018-07-07T04:28:58.316Z,73.00
2018-07-07T04:34:07.903Z,72.10
2018-07-07T04:36:42.972Z,71.40
2018-07-07T04:39:17.963Z,69.50
2018-07-07T04:41:53.076Z,68.40
2018-07-07T04:44:28.232Z,66.80
2018-07-07T04:47:03.204Z,64.90
2018-07-07T04:49:38.288Z,63.90
2018-07-07T04:52:13.413Z,62.50
2018-07-07T04:54:48.517Z,60.60
2018-07-07T04:57:23.448Z,58.50
2018-07-07T04:59:58.468Z,58.30
2018-07-07T05:02:33.633Z,56.90
2018-07-07T05:05:08.644Z,55.60
2018-07-07T05:07:43.880Z,54.80
2018-07-07T05:10:18.980Z,55.00
2018-07-07T05:12:54.355Z,54.80
2018-07-07T05:15:29.500Z,55.60
2018-07-07T05:18:04.844Z,54.70
2018-07-07T05:20:39.876Z,54.10
2018-07-07T05:23:15.024Z,54.30
2018-07-07T05:25:49.947Z,55.00
2018-07-07T05:28:25.014Z,56.30
2018-07-07T05:31:00.025Z,55.40
2018-07-07T05:33:35.195Z,55.90
2018-07-07T05:36:11.118Z,55.80
2018-07-07T05:38:46.163Z,55.10
2018-07-07T05:41:21.312Z,56.90
2018-07-07T05:43:57.692Z,60.00
2018-07-07T05:46:33.104Z,67.10
2018-07-07T05:49:08.179Z,68.90
2018-07-07T05:51:43.282Z,67.30
2018-07-07T05:54:18.552Z,66.40
2018-07-07T05:56:53.648Z,66.00
2018-07-07T05:59:29.185Z,65.90
2018-07-07T06:02:04.412Z,65.90
2018-07-07T06:04:39.377Z,65.30
2018-07-07T06:07:14.539Z,66.70
2018-07-07T06:09:49.716Z,66.10
2018-07-07T06:12:24.837Z,69.90
2018-07-07T06:14:59.931Z,70.30
2018-07-07T06:17:34.956Z,71.50
2018-07-07T06:20:10.032Z,71.80
2018-07-07T06:22:45.141Z,69.30
2018-07-07T06:25:20.267Z,70.30
2018-07-07T06:27:55.412Z,69.00
2018-07-07T06:30:30.528Z,67.50
2018-07-07T06:33:05.540Z,68.30
2018-07-07T06:35:40.479Z,67.50
2018-07-07T06:38:15.627Z,67.80
2018-07-07T06:40:50.609Z,67.70
2018-07-07T06:43:25.731Z,68.90
2018-07-07T06:46:00.815Z,68.40
2018-07-07T06:48:35.927Z,66.70
2018-07-07T06:51:11.016Z,68.00
2018-07-07T06:53:46.194Z,66.80
2018-07-07T06:56:21.260Z,66.30
2018-07-07T06:58:56.340Z,66.10
2018-07-07T07:01:31.474Z,65.10
2018-07-07T07:04:06.488Z,65.70
2018-07-07T07:06:41.459Z,65.50
2018-07-07T07:09:16.612Z,67.00
2018-07-07T07:11:51.672Z,65.90
2018-07-07T07:14:26.575Z,67.10
2018-07-07T07:17:01.740Z,67.90
2018-07-07T07:19:36.972Z,68.40
2018-07-07T07:22:12.104Z,68.50
2018-07-07T07:24:47.296Z,66.60
2018-07-07T07:27:22.420Z,67.20
2018-07-07T07:29:57.556Z,65.80
2018-07-07T07:32:32.720Z,63.10
2018-07-07T07:35:07.768Z,60.70
2018-07-07T07:37:42.720Z,60.40
2018-07-07T07:40:17.671Z,59.60
2018-07-07T07:42:52.844Z,59.50
2018-07-07T07:48:02.640Z,59.10
2018-07-07T07:50:37.815Z,57.30
2018-07-07T07:53:14.523Z,56.70
2018-07-07T07:55:49.608Z,55.80
2018-07-07T07:58:24.743Z,58.30
2018-07-07T08:01:00.042Z,57.40
2018-07-07T08:03:35.099Z,56.10
2018-07-07T08:06:10.416Z,56.70
2018-07-07T08:08:45.488Z,54.60
2018-07-07T08:11:20.673Z,52.10
2018-07-07T08:13:55.860Z,52.30
2018-07-07T08:16:30.944Z,52.40
2018-07-07T08:19:06.033Z,52.10
2018-07-07T08:21:41.216Z,51.60
2018-07-07T08:24:16.396Z,51.30
2018-07-07T08:26:51.648Z,51.00
2018-07-07T08:29:26.571Z,50.60
2018-07-07T08:32:01.696Z,50.30
2018-07-07T08:34:36.632Z,50.20
2018-07-07T08:37:11.756Z,50.00
2018-07-07T08:39:46.838Z,49.60
2018-07-07T08:42:21.832Z,49.40
2018-07-07T08:44:56.956Z,49.20
2018-07-07T08:47:32.164Z,48.90
2018-07-07T08:52:42.392Z,48.60
2018-07-07T08:55:17.518Z,48.40
2018-07-07T08:57:52.467Z,48.30
2018-07-07T09:00:27.583Z,48.00
2018-07-07T09:05:38.261Z,47.70
2018-07-07T09:08:13.308Z,47.50
2018-07-07T09:10:48.364Z,47.50
2018-07-07T09:13:23.536Z,47.30
2018-07-07T09:15:58.594Z,47.30
2018-07-07T09:18:33.547Z,47.20
2018-07-07T09:21:08.660Z,47.00
2018-07-07T09:23:44.028Z,47.10
2018-07-07T09:26:18.991Z,46.80
2018-07-07T09:28:54.007Z,46.80
2018-07-07T09:31:29.132Z,46.60
2018-07-07T09:34:04.241Z,46.70
2018-07-07T09:36:39.158Z,46.40
2018-07-07T09:39:14.241Z,46.20
2018-07-07T09:41:49.367Z,46.30
2018-07-07T09:44:24.491Z,46.40
2018-07-07T09:46:59.595Z,46.40
2018-07-07T09:49:34.708Z,46.50
2018-07-07T09:52:09.752Z,47.20
2018-07-07T09:54:44.894Z,48.80
2018-07-07T09:57:20.028Z,49.40
2018-07-07T09:59:55.137Z,50.70
2018-07-07T10:02:30.181Z,52.70
2018-07-07T10:05:05.271Z,53.70
2018-07-07T10:07:40.568Z,53.70
2018-07-07T10:10:15.616Z,54.10
2018-07-07T10:12:50.663Z,54.10
2018-07-07T10:15:25.812Z,54.60
2018-07-07T10:18:00.712Z,54.60
2018-07-07T10:20:35.844Z,54.60
2018-07-07T10:23:10.899Z,54.90
2018-07-07T10:25:45.988Z,54.60
2018-07-07T10:28:20.932Z,53.20
2018-07-07T10:30:56.157Z,53.00
2018-07-07T10:33:31.267Z,52.50
2018-07-07T10:36:06.418Z,52.70
2018-07-07T10:38:41.449Z,52.90
2018-07-07T10:41:16.504Z,53.40
2018-07-07T10:46:26.232Z,54.30
2018-07-07T10:49:01.275Z,54.80
2018-07-07T10:51:36.648Z,55.10
2018-07-07T10:54:11.669Z,55.20
2018-07-07T10:56:46.764Z,55.60
2018-07-07T10:59:21.923Z,56.00
2018-07-07T11:01:56.807Z,56.30
2018-07-07T11:04:31.959Z,56.50
2018-07-07T11:07:06.907Z,56.40
2018-07-07T11:09:41.853Z,55.60
2018-07-07T11:12:16.940Z,54.90
2018-07-07T11:14:51.937Z,55.00
2018-07-07T11:17:26.997Z,55.30
2018-07-07T11:20:02.100Z,55.00
2018-07-07T11:22:37.161Z,54.20
2018-07-07T11:25:12.206Z,54.80
2018-07-07T11:27:47.204Z,54.60
2018-07-07T11:30:22.340Z,54.70
2018-07-07T11:32:57.436Z,54.70
2018-07-07T11:35:32.540Z,55.20
2018-07-07T11:38:07.601Z,55.00
2018-07-07T11:40:42.500Z,55.30
2018-07-07T11:43:17.932Z,55.50
2018-07-07T11:45:52.992Z,55.40
2018-07-07T11:48:28.145Z,55.50
2018-07-07T11:51:03.068Z,55.60
2018-07-07T11:53:38.004Z,55.40
2018-07-07T11:56:13.119Z,55.20
2018-07-07T11:58:48.245Z,55.80
2018-07-07T12:01:23.291Z,56.00
2018-07-07T12:03:58.394Z,56.00
2018-07-07T12:06:33.532Z,56.00
2018-07-07T12:09:08.568Z,56.10
2018-07-07T12:11:43.828Z,56.70
2018-07-07T12:14:18.715Z,56.90
2018-07-07T12:16:53.816Z,56.90
2018-07-07T12:19:28.967Z,57.00
2018-07-07T12:22:04.094Z,56.90
2018-07-07T12:24:39.064Z,56.90
2018-07-07T12:27:14.013Z,57.00
2018-07-07T12:32:23.821Z,56.80
2018-07-07T12:34:58.874Z,56.40
2018-07-07T12:37:33.840Z,56.70
2018-07-07T12:40:09.043Z,56.80
2018-07-07T12:42:44.077Z,56.60
2018-07-07T12:45:19.067Z,56.60
2018-07-07T12:47:54.060Z,56.60
2018-07-07T12:50:29.176Z,56.80
2018-07-07T12:53:04.199Z,56.90
2018-07-07T12:55:39.379Z,57.00
2018-07-07T12:58:14.467Z,56.90
2018-07-07T13:00:49.413Z,56.80
2018-07-07T13:03:24.435Z,56.90
2018-07-07T13:05:59.562Z,56.80
2018-07-07T13:08:34.628Z,57.00
2018-07-07T13:11:09.745Z,56.80
2018-07-07T13:13:44.708Z,56.90
2018-07-07T13:16:19.732Z,56.90
2018-07-07T13:18:54.724Z,56.70
2018-07-07T13:24:04.711Z,56.50
2018-07-07T13:26:39.826Z,56.80
2018-07-07T13:29:14.992Z,56.70
2018-07-07T13:31:50.204Z,57.10
2018-07-07T13:34:25.376Z,57.30
2018-07-07T13:37:00.477Z,57.40
2018-07-07T13:39:41.276Z,57.10
2018-07-07T13:42:16.236Z,56.90
2018-07-07T13:44:51.332Z,56.90
2018-07-07T13:47:26.425Z,57.50
2018-07-07T13:50:01.404Z,57.80
2018-07-07T13:52:36.532Z,58.00
2018-07-07T13:55:12.739Z,58.00
2018-07-07T13:57:47.874Z,58.50
2018-07-07T14:00:23.852Z,58.40
2018-07-07T14:02:58.976Z,58.50
2018-07-07T14:05:34.008Z,58.30
2018-07-07T14:08:09.046Z,58.50
2018-07-07T14:10:44.012Z,58.70
2018-07-07T14:13:19.017Z,58.60
2018-07-07T14:15:54.184Z,57.90
2018-07-07T14:18:29.213Z,58.20
2018-07-07T14:21:04.537Z,58.20
2018-07-07T14:23:39.603Z,57.60
2018-07-07T14:26:14.732Z,57.70
2018-07-07T14:28:49.855Z,58.40
2018-07-07T14:31:25.616Z,58.00
2018-07-07T14:34:00.732Z,58.40
2018-07-07T14:36:38.787Z,58.60
2018-07-07T14:39:14.004Z,58.70
2018-07-07T14:41:54.568Z,57.60
2018-07-07T14:44:29.508Z,43.10
2018-07-07T14:47:04.656Z,41.90
2018-07-07T14:49:39.640Z,48.50
2018-07-07T14:52:14.736Z,44.00
2018-07-07T14:54:49.697Z,46.00
2018-07-07T14:57:24.711Z,45.80
2018-07-07T15:00:00.630Z,42.90
2018-07-07T15:02:35.772Z,43.00
2018-07-07T15:05:10.878Z,45.80
2018-07-07T15:07:46.701Z,45.50
2018-07-07T15:10:21.787Z,42.30
2018-07-07T15:12:56.791Z,41.50
2018-07-07T15:15:31.951Z,42.50
2018-07-07T15:18:06.873Z,42.90
2018-07-07T15:20:41.854Z,41.20
2018-07-07T15:23:16.915Z,43.30
2018-07-07T15:25:51.836Z,45.20
2018-07-07T15:28:26.930Z,42.20
2018-07-07T15:33:36.624Z,43.20
2018-07-07T15:36:11.731Z,41.30
2018-07-07T15:38:46.848Z,41.10
2018-07-07T15:41:22.029Z,41.60
2018-07-07T15:43:56.988Z,42.30
2018-07-07T15:46:31.929Z,42.00
2018-07-07T15:49:06.913Z,42.10
2018-07-07T15:51:41.988Z,45.30
2018-07-07T15:54:17.331Z,42.20
2018-07-07T15:56:52.456Z,42.90
2018-07-07T15:59:28.368Z,42.30
2018-07-07T16:02:03.559Z,43.10
2018-07-07T16:04:38.587Z,42.70
2018-07-07T16:07:13.721Z,44.40
2018-07-07T16:09:48.768Z,43.00
2018-07-07T16:12:23.715Z,42.50
2018-07-07T16:14:59.160Z,43.00
2018-07-07T16:17:34.248Z,43.80
2018-07-07T16:20:09.344Z,45.50
2018-07-07T16:22:44.395Z,42.20
2018-07-07T16:25:19.532Z,44.90
2018-07-07T16:27:54.523Z,42.30
2018-07-07T16:30:29.715Z,43.00
2018-07-07T16:33:04.732Z,44.10
2018-07-07T16:35:39.746Z,43.10
2018-07-07T16:38:14.871Z,43.40
2018-07-07T16:40:49.940Z,44.60
2018-07-07T16:43:24.936Z,44.60
2018-07-07T16:46:00.102Z,42.80
2018-07-07T16:48:35.099Z,44.20
2018-07-07T16:51:10.451Z,45.90
2018-07-07T16:53:45.896Z,43.50
2018-07-07T16:56:21.135Z,44.30
2018-07-07T16:58:56.187Z,46.10
2018-07-07T17:04:06.036Z,43.80
2018-07-07T17:06:40.988Z,43.20
2018-07-07T17:09:16.360Z,45.30
2018-07-07T17:11:52.296Z,45.60
2018-07-07T17:14:27.239Z,44.40
2018-07-07T17:17:02.560Z,44.10
2018-07-07T17:19:37.516Z,44.90
2018-07-07T17:22:12.753Z,45.90
2018-07-07T17:24:47.784Z,44.80
2018-07-07T17:27:22.910Z,44.50
2018-07-07T17:29:58.705Z,45.60
2018-07-07T17:32:33.767Z,44.30
2018-07-07T17:35:08.714Z,44.70
2018-07-07T17:37:43.784Z,45.30
2018-07-07T17:49:40.601Z,46.70
2018-07-07T17:52:15.567Z,45.90
2018-07-07T17:54:50.623Z,46.10
2018-07-07T17:57:25.684Z,46.20
2018-07-07T18:00:00.832Z,46.30
2018-07-07T18:02:35.985Z,45.60
2018-07-07T18:05:11.093Z,46.10
2018-07-07T18:07:46.073Z,46.90
2018-07-07T18:10:21.238Z,45.60
2018-07-07T18:12:56.280Z,45.60
2018-07-07T18:15:36.026Z,45.90
2018-07-07T18:18:12.480Z,45.30
2018-07-07T18:20:47.878Z,44.80
2018-07-07T18:23:22.949Z,45.30
2018-07-07T18:25:58.124Z,45.80
2018-07-07T18:28:33.216Z,44.00
2018-07-07T18:31:08.400Z,45.00
2018-07-07T18:33:43.311Z,47.30
2018-07-07T18:36:18.315Z,44.70
2018-07-07T18:38:53.227Z,45.10
2018-07-07T18:41:28.368Z,46.10
2018-07-07T18:44:03.483Z,45.60
2018-07-07T18:46:38.565Z,45.10
2018-07-07T18:49:13.750Z,45.60
2018-07-07T18:51:48.684Z,45.90
2018-07-07T18:54:23.796Z,45.10
2018-07-07T18:56:58.829Z,46.40
2018-07-07T18:59:33.975Z,47.10
2018-07-07T19:02:09.103Z,46.90
2018-07-07T19:04:44.256Z,46.70
2018-07-07T19:07:19.320Z,46.80
2018-07-07T19:09:54.244Z,46.20
2018-07-07T19:12:29.263Z,47.10
2018-07-07T19:15:09.628Z,48.40
2018-07-07T19:17:44.595Z,48.00
2018-07-07T19:20:25.164Z,48.30
2018-07-07T19:23:05.708Z,48.40
2018-07-07T19:25:46.372Z,48.30
2018-07-07T19:28:21.564Z,48.10
2018-07-07T19:30:56.532Z,49.00
2018-07-07T19:33:36.967Z,49.10
2018-07-07T19:36:17.489Z,49.80
2018-07-07T19:38:52.616Z,50.10
2018-07-07T19:41:27.575Z,50.70
2018-07-07T19:44:02.555Z,51.50
2018-07-07T19:46:37.524Z,52.20
2018-07-07T19:49:12.547Z,52.30
2018-07-07T19:51:47.640Z,52.90
2018-07-07T19:54:22.692Z,52.40
2018-07-07T19:56:57.643Z,52.20
2018-07-07T19:59:32.752Z,53.40
2018-07-07T20:02:07.836Z,52.40
2018-07-07T20:07:17.516Z,53.30
2018-07-07T20:09:52.492Z,52.70
2018-07-07T20:12:27.447Z,53.60
2018-07-07T20:15:02.516Z,54.30
2018-07-07T20:17:49.135Z,54.60
2018-07-07T20:20:36.189Z,54.70
2018-07-07T20:23:12.463Z,54.90
2018-07-07T20:25:52.828Z,55.10
2018-07-07T20:28:33.357Z,54.60
2018-07-07T20:31:08.425Z,55.20
2018-07-07T20:33:43.369Z,54.80
2018-07-07T20:36:18.545Z,55.90
2018-07-07T20:38:53.496Z,56.30
2018-07-07T20:41:28.587Z,54.80
2018-07-07T20:44:03.558Z,55.30
2018-07-07T20:46:38.515Z,55.00
2018-07-07T20:49:13.487Z,55.60
2018-07-07T20:51:48.556Z,55.80
2018-07-07T20:54:23.573Z,56.40
2018-07-07T20:56:58.687Z,56.50
2018-07-07T20:59:33.636Z,56.60
2018-07-07T21:02:08.879Z,56.50
2018-07-07T21:04:43.859Z,55.80
2018-07-07T21:07:19.092Z,56.10
2018-07-07T21:09:54.011Z,55.30
2018-07-07T21:12:29.152Z,55.10
2018-07-07T21:15:04.319Z,55.80
2018-07-07T21:17:39.520Z,55.90
2018-07-07T21:20:14.640Z,56.40
2018-07-07T21:22:49.751Z,57.20
2018-07-07T21:25:24.995Z,57.40
2018-07-07T21:28:00.116Z,56.70
2018-07-07T21:30:35.252Z,58.40
2018-07-07T21:33:10.293Z,58.40
2018-07-07T21:35:45.380Z,59.00
2018-07-07T21:38:20.519Z,59.00
2018-07-07T21:40:55.492Z,59.80
2018-07-07T21:43:31.152Z,59.60
2018-07-07T21:46:06.077Z,59.90
2018-07-07T21:48:41.171Z,59.50
2018-07-07T21:51:16.228Z,59.30
2018-07-07T21:53:51.340Z,60.20
2018-07-07T21:56:26.339Z,60.70
2018-07-07T21:59:07.004Z,60.60
2018-07-07T22:01:58.024Z,61.90
2018-07-07T22:04:38.262Z,62.50
2018-07-07T22:07:18.760Z,62.30
2018-07-07T22:09:53.860Z,63.20
2018-07-07T22:12:28.944Z,63.50
2018-07-07T22:15:04.120Z,62.90
2018-07-07T22:17:39.136Z,63.70
2018-07-07T22:20:19.291Z,64.10
2018-07-07T22:22:54.294Z,64.30
2018-07-07T22:25:29.428Z,65.40
2018-07-07T22:28:04.530Z,65.30
2018-07-07T22:30:39.521Z,65.40
2018-07-07T22:33:19.776Z,67.00
2018-07-07T22:36:00.342Z,65.90
2018-07-07T22:38:40.888Z,66.40
2018-07-07T22:41:15.884Z,66.20
2018-07-07T22:43:51.140Z,66.90
2018-07-07T22:46:26.580Z,68.00
2018-07-07T22:49:01.549Z,67.50
2018-07-07T22:51:36.608Z,68.00
2018-07-07T22:54:12.164Z,69.50
2018-07-07T22:56:47.276Z,71.10
2018-07-07T22:59:22.236Z,70.30
2018-07-07T23:01:57.220Z,70.60
2018-07-07T23:04:32.384Z,69.80
2018-07-07T23:07:07.388Z,70.60
2018-07-07T23:09:42.541Z,70.10
2018-07-07T23:12:17.484Z,69.70
2018-07-07T23:14:52.566Z,69.60
2018-07-07T23:17:27.544Z,71.00
2018-07-07T23:20:02.580Z,71.70
2018-07-07T23:22:53.932Z,71.40
2018-07-07T23:25:29.111Z,72.00
2018-07-07T23:28:04.174Z,71.10
2018-07-07T23:30:39.272Z,71.60
2018-07-07T23:33:14.412Z,73.80
2018-07-07T23:38:24.135Z,73.50
2018-07-07T23:40:59.071Z,74.70
2018-07-07T23:43:34.308Z,76.60
2018-07-07T23:46:09.755Z,76.50
2018-07-07T23:48:44.784Z,76.70
2018-07-07T23:51:19.977Z,77.20
2018-07-07T23:53:55.188Z,77.50
2018-07-07T23:56:30.288Z,76.80
2018-07-07T23:59:05.308Z,77.10
